Appleton, Arkansas
Current Conditions -  °F | °C
As of 1:53 PM on Sunday 23 Nov 2014 (Local Time) from KRUE Reporting Station
Overcast Overcast  
Wind Chill: 61°   Ceiling: 600
Heat Index: 61°   Visibility: 10mi
Dew Point: 59°   Wind: 3mph
Humidity: 93%   Direction: 80°E
Pressure: 29.35"   Gusts: NA
Location:  35.2384°N, 92.9429°W
Report Text: KRUE 231953Z AUTO 08003KT 10SM OVC006 16/15 A2935 RMK AO2 CIG 005V010 SLP932 T01610150
Loading
Personal Weather Stations






























Interactive Weather Map New forecast layout! Learn more

10-Day Weather Forecast

Advertisements
Track Severe Weather on mobile